sensor_id;sensor_type;location;lat;lon;timestamp;temperature;humidity
23669;DHT22;12011;47.422;15.018;2023-10-08T00:01:30;12.50;84.80
23669;DHT22;12011;47.422;15.018;2023-10-08T00:04:09;12.60;80.40
23669;DHT22;12011;47.422;15.018;2023-10-08T00:06:47;12.90;71.70
23669;DHT22;12011;47.422;15.018;2023-10-08T00:09:21;12.70;91.40
23669;DHT22;12011;47.422;15.018;2023-10-08T00:11:53;12.50;90.10
23669;DHT22;12011;47.422;15.018;2023-10-08T00:14:27;12.60;83.70
23669;DHT22;12011;47.422;15.018;2023-10-08T00:16:59;12.80;87.90
23669;DHT22;12011;47.422;15.018;2023-10-08T00:19:31;12.60;92.40
23669;DHT22;12011;47.422;15.018;2023-10-08T00:22:06;12.60;88.60
23669;DHT22;12011;47.422;15.018;2023-10-08T00:24:45;12.50;88.60
23669;DHT22;12011;47.422;15.018;2023-10-08T00:27:29;12.70;85.10
23669;DHT22;12011;47.422;15.018;2023-10-08T00:30:09;12.60;92.30
23669;DHT22;12011;47.422;15.018;2023-10-08T00:32:44;12.10;94.50
23669;DHT22;12011;47.422;15.018;2023-10-08T00:35:14;12.20;99.90
23669;DHT22;12011;47.422;15.018;2023-10-08T00:37:47;12.20;98.50
23669;DHT22;12011;47.422;15.018;2023-10-08T00:40:19;12.20;95.30
23669;DHT22;12011;47.422;15.018;2023-10-08T00:42:50;12.10;99.20
23669;DHT22;12011;47.422;15.018;2023-10-08T00:45:34;12.00;98.80
23669;DHT22;12011;47.422;15.018;2023-10-08T00:48:13;12.00;96.80
23669;DHT22;12011;47.422;15.018;2023-10-08T00:50:49;12.50;90.20
23669;DHT22;12011;47.422;15.018;2023-10-08T00:53:22;12.40;93.40
23669;DHT22;12011;47.422;15.018;2023-10-08T00:55:56;12.40;95.90
23669;DHT22;12011;47.422;15.018;2023-10-08T00:58:38;12.40;91.60
23669;DHT22;12011;47.422;15.018;2023-10-08T01:01:14;12.60;86.10
23669;DHT22;12011;47.422;15.018;2023-10-08T01:03:47;12.40;99.90
23669;DHT22;12011;47.422;15.018;2023-10-08T01:06:36;12.90;91.50
23669;DHT22;12011;47.422;15.018;2023-10-08T01:09:10;12.70;92.10
23669;DHT22;12011;47.422;15.018;2023-10-08T01:12:07;12.50;97.50
23669;DHT22;12011;47.422;15.018;2023-10-08T01:14:38;12.50;99.50
23669;DHT22;12011;47.422;15.018;2023-10-08T01:17:18;12.60;94.70
23669;DHT22;12011;47.422;15.018;2023-10-08T01:19:53;12.60;96.20
23669;DHT22;12011;47.422;15.018;2023-10-08T01:22:39;12.40;99.90
23669;DHT22;12011;47.422;15.018;2023-10-08T01:25:15;12.80;92.10
23669;DHT22;12011;47.422;15.018;2023-10-08T01:27:56;13.00;89.10
23669;DHT22;12011;47.422;15.018;2023-10-08T01:30:32;13.00;91.70
23669;DHT22;12011;47.422;15.018;2023-10-08T01:33:08;12.90;91.70
23669;DHT22;12011;47.422;15.018;2023-10-08T01:35:45;12.80;93.70
23669;DHT22;12011;47.422;15.018;2023-10-08T01:38:37;12.70;96.70
23669;DHT22;12011;47.422;15.018;2023-10-08T01:41:18;12.50;99.90
23669;DHT22;12011;47.422;15.018;2023-10-08T01:43:53;12.40;96.20
23669;DHT22;12011;47.422;15.018;2023-10-08T01:46:35;12.50;95.50
23669;DHT22;12011;47.422;15.018;2023-10-08T01:49:30;12.40;98.50
23669;DHT22;12011;47.422;15.018;2023-10-08T01:52:18;12.20;99.90
23669;DHT22;12011;47.422;15.018;2023-10-08T01:54:55;12.00;99.90
23669;DHT22;12011;47.422;15.018;2023-10-08T01:57:28;11.80;99.90
23669;DHT22;12011;47.422;15.018;2023-10-08T02:00:00;12.00;99.90
23669;DHT22;12011;47.422;15.018;2023-10-08T02:02:41;12.20;98.00
23669;DHT22;12011;47.422;15.018;2023-10-08T02:05:13;12.10;99.90
23669;DHT22;12011;47.422;15.018;2023-10-08T02:07:48;12.20;99.90
23669;DHT22;12011;47.422;15.018;2023-10-08T02:10:29;12.30;99.70
23669;DHT22;12011;47.422;15.018;2023-10-08T02:12:59;12.10;99.90
23669;DHT22;12011;47.422;15.018;2023-10-08T02:15:30;12.20;99.90
23669;DHT22;12011;47.422;15.018;2023-10-08T02:18:01;12.50;97.80
23669;DHT22;12011;47.422;15.018;2023-10-08T02:20:31;12.90;95.00
23669;DHT22;12011;47.422;15.018;2023-10-08T02:23:05;12.80;99.10
23669;DHT22;12011;47.422;15.018;2023-10-08T02:25:41;12.70;99.90
23669;DHT22;12011;47.422;15.018;2023-10-08T02:28:13;12.70;99.90
23669;DHT22;12011;47.422;15.018;2023-10-08T02:30:49;12.80;99.00
23669;DHT22;12011;47.422;15.018;2023-10-08T02:33:21;12.80;96.80
23669;DHT22;12011;47.422;15.018;2023-10-08T02:35:54;12.60;99.90
23669;DHT22;12011;47.422;15.018;2023-10-08T02:38:32;12.60;98.90
23669;DHT22;12011;47.422;15.018;2023-10-08T02:41:09;12.70;98.30
23669;DHT22;12011;47.422;15.018;2023-10-08T02:43:45;12.60;97.80
23669;DHT22;12011;47.422;15.018;2023-10-08T02:46:15;12.50;99.90
23669;DHT22;12011;47.422;15.018;2023-10-08T02:48:46;12.30;99.90
23669;DHT22;12011;47.422;15.018;2023-10-08T02:51:19;12.60;99.90
23669;DHT22;12011;47.422;15.018;2023-10-08T02:53:54;12.70;99.90
23669;DHT22;12011;47.422;15.018;2023-10-08T02:56:29;13.40;95.80
23669;DHT22;12011;47.422;15.018;2023-10-08T02:59:02;13.50;91.10
23669;DHT22;12011;47.422;15.018;2023-10-08T03:01:38;13.50;92.80
23669;DHT22;12011;47.422;15.018;2023-10-08T03:04:12;13.50;92.90
23669;DHT22;12011;47.422;15.018;2023-10-08T03:06:53;13.90;88.40
23669;DHT22;12011;47.422;15.018;2023-10-08T03:09:30;14.30;80.40
23669;DHT22;12011;47.422;15.018;2023-10-08T03:12:03;14.30;80.80
23669;DHT22;12011;47.422;15.018;2023-10-08T03:14:37;14.30;93.10
23669;DHT22;12011;47.422;15.018;2023-10-08T03:17:16;14.40;81.60
23669;DHT22;12011;47.422;15.018;2023-10-08T03:19:49;14.70;79.10
23669;DHT22;12011;47.422;15.018;2023-10-08T03:22:21;14.50;85.10
23669;DHT22;12011;47.422;15.018;2023-10-08T03:25:00;14.70;80.00
23669;DHT22;12011;47.422;15.018;2023-10-08T03:27:44;14.60;78.70
23669;DHT22;12011;47.422;15.018;2023-10-08T03:30:16;14.50;88.60
23669;DHT22;12011;47.422;15.018;2023-10-08T03:32:48;14.20;94.80
23669;DHT22;12011;47.422;15.018;2023-10-08T03:35:27;14.10;98.90
23669;DHT22;12011;47.422;15.018;2023-10-08T03:38:04;14.00;95.10
23669;DHT22;12011;47.422;15.018;2023-10-08T03:40:48;14.40;78.60
23669;DHT22;12011;47.422;15.018;2023-10-08T03:43:28;14.70;76.90
23669;DHT22;12011;47.422;15.018;2023-10-08T03:46:13;14.70;78.10
23669;DHT22;12011;47.422;15.018;2023-10-08T03:48:45;14.60;92.10
23669;DHT22;12011;47.422;15.018;2023-10-08T03:51:18;14.60;94.90
23669;DHT22;12011;47.422;15.018;2023-10-08T03:53:50;16.00;63.00
23669;DHT22;12011;47.422;15.018;2023-10-08T03:56:43;16.10;65.60
23669;DHT22;12011;47.422;15.018;2023-10-08T03:59:24;15.70;73.90
23669;DHT22;12011;47.422;15.018;2023-10-08T04:02:07;15.40;83.00
23669;DHT22;12011;47.422;15.018;2023-10-08T04:04:40;15.50;73.40
23669;DHT22;12011;47.422;15.018;2023-10-08T04:07:26;15.70;67.50
23669;DHT22;12011;47.422;15.018;2023-10-08T04:10:31;16.00;72.90
23669;DHT22;12011;47.422;15.018;2023-10-08T04:13:31;15.90;66.60
23669;DHT22;12011;47.422;15.018;2023-10-08T04:16:08;16.30;63.40
23669;DHT22;12011;47.422;15.018;2023-10-08T04:18:41;16.70;59.70
23669;DHT22;12011;47.422;15.018;2023-10-08T04:21:19;16.80;61.00
23669;DHT22;12011;47.422;15.018;2023-10-08T04:23:54;16.80;61.80
23669;DHT22;12011;47.422;15.018;2023-10-08T04:26:24;16.80;60.20
23669;DHT22;12011;47.422;15.018;2023-10-08T04:28:55;16.70;60.60
23669;DHT22;12011;47.422;15.018;2023-10-08T04:31:32;16.70;61.80
23669;DHT22;12011;47.422;15.018;2023-10-08T04:34:10;17.00;57.20
23669;DHT22;12011;47.422;15.018;2023-10-08T04:36:49;16.70;64.50
23669;DHT22;12011;47.422;15.018;2023-10-08T04:39:20;17.40;53.60
23669;DHT22;12011;47.422;15.018;2023-10-08T04:41:58;17.50;55.30
23669;DHT22;12011;47.422;15.018;2023-10-08T04:44:33;17.50;56.40
23669;DHT22;12011;47.422;15.018;2023-10-08T04:47:09;17.30;59.70
23669;DHT22;12011;47.422;15.018;2023-10-08T04:49:57;17.00;63.20
23669;DHT22;12011;47.422;15.018;2023-10-08T04:52:30;17.00;61.70
23669;DHT22;12011;47.422;15.018;2023-10-08T04:55:00;16.90;61.10
23669;DHT22;12011;47.422;15.018;2023-10-08T04:57:38;17.10;56.70
23669;DHT22;12011;47.422;15.018;2023-10-08T05:00:10;17.20;57.20
23669;DHT22;12011;47.422;15.018;2023-10-08T05:02:44;17.50;55.80
23669;DHT22;12011;47.422;15.018;2023-10-08T05:05:20;17.10;59.90
23669;DHT22;12011;47.422;15.018;2023-10-08T05:08:04;17.20;60.80
23669;DHT22;12011;47.422;15.018;2023-10-08T05:10:51;16.90;63.90
23669;DHT22;12011;47.422;15.018;2023-10-08T05:13:38;16.80;61.10
23669;DHT22;12011;47.422;15.018;2023-10-08T05:16:23;16.70;61.20
23669;DHT22;12011;47.422;15.018;2023-10-08T05:19:06;16.70;68.80
23669;DHT22;12011;47.422;15.018;2023-10-08T05:21:51;16.60;60.70
23669;DHT22;12011;47.422;15.018;2023-10-08T05:24:28;16.90;67.00
23669;DHT22;12011;47.422;15.018;2023-10-08T05:27:05;17.10;66.60
23669;DHT22;12011;47.422;15.018;2023-10-08T05:29:50;16.70;67.70
23669;DHT22;12011;47.422;15.018;2023-10-08T05:32:35;16.70;66.80
23669;DHT22;12011;47.422;15.018;2023-10-08T05:35:20;16.60;62.00
23669;DHT22;12011;47.422;15.018;2023-10-08T05:37:58;16.80;57.90
23669;DHT22;12011;47.422;15.018;2023-10-08T05:40:40;16.90;63.80
23669;DHT22;12011;47.422;15.018;2023-10-08T05:43:32;17.20;63.30
23669;DHT22;12011;47.422;15.018;2023-10-08T05:46:16;17.80;54.80
23669;DHT22;12011;47.422;15.018;2023-10-08T05:49:06;18.30;52.80
23669;DHT22;12011;47.422;15.018;2023-10-08T05:51:55;18.50;49.80
23669;DHT22;12011;47.422;15.018;2023-10-08T05:54:37;18.80;48.70
23669;DHT22;12011;47.422;15.018;2023-10-08T05:57:23;18.90;51.10
23669;DHT22;12011;47.422;15.018;2023-10-08T06:00:06;18.80;49.10
23669;DHT22;12011;47.422;15.018;2023-10-08T06:02:57;18.80;51.30
23669;DHT22;12011;47.422;15.018;2023-10-08T06:06:01;18.60;51.40
23669;DHT22;12011;47.422;15.018;2023-10-08T06:08:46;18.30;55.70
23669;DHT22;12011;47.422;15.018;2023-10-08T06:11:48;18.10;57.30
23669;DHT22;12011;47.422;15.018;2023-10-08T06:14:31;18.10;56.60
23669;DHT22;12011;47.422;15.018;2023-10-08T06:17:19;18.20;54.10
23669;DHT22;12011;47.422;15.018;2023-10-08T06:20:23;18.90;50.10
23669;DHT22;12011;47.422;15.018;2023-10-08T06:22:55;19.10;50.20
23669;DHT22;12011;47.422;15.018;2023-10-08T06:25:35;19.30;49.60
23669;DHT22;12011;47.422;15.018;2023-10-08T06:28:12;19.30;48.90
23669;DHT22;12011;47.422;15.018;2023-10-08T06:30:45;19.40;47.30
23669;DHT22;12011;47.422;15.018;2023-10-08T06:33:16;19.30;48.40
23669;DHT22;12011;47.422;15.018;2023-10-08T06:35:45;19.30;48.90
23669;DHT22;12011;47.422;15.018;2023-10-08T06:38:28;19.20;50.10
23669;DHT22;12011;47.422;15.018;2023-10-08T06:41:02;19.10;51.80
23669;DHT22;12011;47.422;15.018;2023-10-08T06:43:35;18.70;59.60
23669;DHT22;12011;47.422;15.018;2023-10-08T06:46:06;18.50;63.00
23669;DHT22;12011;47.422;15.018;2023-10-08T06:48:38;18.80;53.00
23669;DHT22;12011;47.422;15.018;2023-10-08T06:51:09;18.90;51.70
23669;DHT22;12011;47.422;15.018;2023-10-08T06:53:45;19.00;51.20
23669;DHT22;12011;47.422;15.018;2023-10-08T06:56:18;19.40;52.30
23669;DHT22;12011;47.422;15.018;2023-10-08T06:58:50;19.30;50.60
23669;DHT22;12011;47.422;15.018;2023-10-08T07:01:21;19.30;50.40
23669;DHT22;12011;47.422;15.018;2023-10-08T07:03:51;19.20;51.50
23669;DHT22;12011;47.422;15.018;2023-10-08T07:06:29;19.30;50.70
23669;DHT22;12011;47.422;15.018;2023-10-08T07:09:01;19.30;50.20
23669;DHT22;12011;47.422;15.018;2023-10-08T07:11:35;19.50;48.80
23669;DHT22;12011;47.422;15.018;2023-10-08T07:14:10;19.50;49.40
23669;DHT22;12011;47.422;15.018;2023-10-08T07:16:41;19.70;49.50
23669;DHT22;12011;47.422;15.018;2023-10-08T07:19:13;19.60;53.00
23669;DHT22;12011;47.422;15.018;2023-10-08T07:22:09;19.40;50.80
23669;DHT22;12011;47.422;15.018;2023-10-08T07:24:48;19.80;47.30
23669;DHT22;12011;47.422;15.018;2023-10-08T07:27:22;19.80;48.50
23669;DHT22;12011;47.422;15.018;2023-10-08T07:30:11;19.80;47.90
23669;DHT22;12011;47.422;15.018;2023-10-08T07:33:00;19.70;49.80
23669;DHT22;12011;47.422;15.018;2023-10-08T07:35:30;19.60;49.50
23669;DHT22;12011;47.422;15.018;2023-10-08T07:38:05;19.80;49.70
23669;DHT22;12011;47.422;15.018;2023-10-08T07:40:35;19.80;48.60
23669;DHT22;12011;47.422;15.018;2023-10-08T07:43:08;19.70;49.40
23669;DHT22;12011;47.422;15.018;2023-10-08T07:45:39;19.70;53.00
23669;DHT22;12011;47.422;15.018;2023-10-08T07:48:11;19.50;52.00
23669;DHT22;12011;47.422;15.018;2023-10-08T07:50:43;19.80;48.70
23669;DHT22;12011;47.422;15.018;2023-10-08T07:53:13;19.90;49.00
23669;DHT22;12011;47.422;15.018;2023-10-08T07:55:47;19.80;49.50
23669;DHT22;12011;47.422;15.018;2023-10-08T07:58:20;19.70;50.50
23669;DHT22;12011;47.422;15.018;2023-10-08T08:00:50;19.70;51.40
23669;DHT22;12011;47.422;15.018;2023-10-08T08:03:22;19.90;49.90
23669;DHT22;12011;47.422;15.018;2023-10-08T08:05:53;19.80;50.70
23669;DHT22;12011;47.422;15.018;2023-10-08T08:08:24;19.90;49.60
23669;DHT22;12011;47.422;15.018;2023-10-08T08:10:54;19.80;52.00
23669;DHT22;12011;47.422;15.018;2023-10-08T08:13:33;19.90;49.90
23669;DHT22;12011;47.422;15.018;2023-10-08T08:16:03;19.80;52.70
23669;DHT22;12011;47.422;15.018;2023-10-08T08:18:49;20.00;49.00
23669;DHT22;12011;47.422;15.018;2023-10-08T08:21:23;20.10;49.10
23669;DHT22;12011;47.422;15.018;2023-10-08T08:23:56;20.00;50.10
23669;DHT22;12011;47.422;15.018;2023-10-08T08:26:38;19.90;50.70
23669;DHT22;12011;47.422;15.018;2023-10-08T08:29:30;20.10;48.90
23669;DHT22;12011;47.422;15.018;2023-10-08T08:32:39;20.10;48.40
23669;DHT22;12011;47.422;15.018;2023-10-08T08:35:19;20.00;49.80
23669;DHT22;12011;47.422;15.018;2023-10-08T08:55:21;20.00;50.90
23669;DHT22;12011;47.422;15.018;2023-10-08T08:58:10;19.80;52.10
23669;DHT22;12011;47.422;15.018;2023-10-08T09:00:41;19.80;51.40
23669;DHT22;12011;47.422;15.018;2023-10-08T09:03:11;19.80;49.70
23669;DHT22;12011;47.422;15.018;2023-10-08T09:05:41;19.80;51.60
23669;DHT22;12011;47.422;15.018;2023-10-08T09:08:16;19.90;50.40
23669;DHT22;12011;47.422;15.018;2023-10-08T09:10:48;19.80;53.30
23669;DHT22;12011;47.422;15.018;2023-10-08T09:13:21;19.80;51.50
23669;DHT22;12011;47.422;15.018;2023-10-08T09:15:52;19.70;52.50
23669;DHT22;12011;47.422;15.018;2023-10-08T09:18:22;19.30;57.80
23669;DHT22;12011;47.422;15.018;2023-10-08T09:20:53;19.50;52.20
23669;DHT22;12011;47.422;15.018;2023-10-08T09:23:24;19.70;51.50
23669;DHT22;12011;47.422;15.018;2023-10-08T09:25:57;19.50;54.00
23669;DHT22;12011;47.422;15.018;2023-10-08T09:28:28;19.50;53.00
23669;DHT22;12011;47.422;15.018;2023-10-08T09:31:00;19.50;52.30
23669;DHT22;12011;47.422;15.018;2023-10-08T09:33:31;19.70;51.90
23669;DHT22;12011;47.422;15.018;2023-10-08T09:36:01;19.60;51.90
23669;DHT22;12011;47.422;15.018;2023-10-08T09:38:35;19.60;56.50
23669;DHT22;12011;47.422;15.018;2023-10-08T09:41:07;19.50;57.90
23669;DHT22;12011;47.422;15.018;2023-10-08T09:43:38;19.50;58.30
23669;DHT22;12011;47.422;15.018;2023-10-08T09:46:18;19.40;55.20
23669;DHT22;12011;47.422;15.018;2023-10-08T09:48:57;19.40;56.40
23669;DHT22;12011;47.422;15.018;2023-10-08T09:51:35;19.30;59.80
23669;DHT22;12011;47.422;15.018;2023-10-08T09:54:11;19.30;57.00
23669;DHT22;12011;47.422;15.018;2023-10-08T09:56:44;19.40;54.00
23669;DHT22;12011;47.422;15.018;2023-10-08T09:59:16;19.40;59.10
23669;DHT22;12011;47.422;15.018;2023-10-08T10:01:47;19.40;54.60
23669;DHT22;12011;47.422;15.018;2023-10-08T10:04:23;19.50;55.50
23669;DHT22;12011;47.422;15.018;2023-10-08T10:06:55;19.50;54.50
23669;DHT22;12011;47.422;15.018;2023-10-08T10:09:27;19.60;56.80
23669;DHT22;12011;47.422;15.018;2023-10-08T10:11:59;19.50;59.70
23669;DHT22;12011;47.422;15.018;2023-10-08T10:14:41;19.30;61.90
23669;DHT22;12011;47.422;15.018;2023-10-08T10:17:17;19.10;64.30
23669;DHT22;12011;47.422;15.018;2023-10-08T10:19:50;19.20;60.20
23669;DHT22;12011;47.422;15.018;2023-10-08T10:22:30;19.20;60.70
23669;DHT22;12011;47.422;15.018;2023-10-08T10:25:03;19.40;55.50
23669;DHT22;12011;47.422;15.018;2023-10-08T10:30:52;19.50;56.10
23669;DHT22;12011;47.422;15.018;2023-10-08T10:33:32;19.80;52.60
23669;DHT22;12011;47.422;15.018;2023-10-08T10:36:06;19.80;53.40
23669;DHT22;12011;47.422;15.018;2023-10-08T10:38:45;19.80;53.50
23669;DHT22;12011;47.422;15.018;2023-10-08T10:41:18;19.70;59.00
23669;DHT22;12011;47.422;15.018;2023-10-08T10:43:50;19.70;55.30
23669;DHT22;12011;47.422;15.018;2023-10-08T10:46:28;19.70;61.70
23669;DHT22;12011;47.422;15.018;2023-10-08T10:48:58;19.50;57.00
23669;DHT22;12011;47.422;15.018;2023-10-08T10:51:47;19.60;54.70
23669;DHT22;12011;47.422;15.018;2023-10-08T10:54:20;19.60;55.00
23669;DHT22;12011;47.422;15.018;2023-10-08T10:56:53;19.50;65.50
23669;DHT22;12011;47.422;15.018;2023-10-08T10:59:39;19.40;57.70
23669;DHT22;12011;47.422;15.018;2023-10-08T11:02:11;19.50;56.70
23669;DHT22;12011;47.422;15.018;2023-10-08T11:04:58;19.40;59.10
23669;DHT22;12011;47.422;15.018;2023-10-08T11:07:35;19.50;57.20
23669;DHT22;12011;47.422;15.018;2023-10-08T11:10:12;19.50;56.80
23669;DHT22;12011;47.422;15.018;2023-10-08T11:12:52;19.60;55.90
23669;DHT22;12011;47.422;15.018;2023-10-08T11:15:28;19.70;55.80
23669;DHT22;12011;47.422;15.018;2023-10-08T11:18:09;19.60;61.20
23669;DHT22;12011;47.422;15.018;2023-10-08T11:20:44;19.50;64.00
23669;DHT22;12011;47.422;15.018;2023-10-08T11:23:36;19.40;80.30
23669;DHT22;12011;47.422;15.018;2023-10-08T11:26:12;19.10;87.30
23669;DHT22;12011;47.422;15.018;2023-10-08T11:28:46;19.00;77.00
23669;DHT22;12011;47.422;15.018;2023-10-08T11:31:31;18.90;85.50
23669;DHT22;12011;47.422;15.018;2023-10-08T11:34:04;18.90;84.90
23669;DHT22;12011;47.422;15.018;2023-10-08T11:36:43;18.70;91.20
23669;DHT22;12011;47.422;15.018;2023-10-08T11:39:22;18.70;78.10
23669;DHT22;12011;47.422;15.018;2023-10-08T11:41:58;18.70;85.70
23669;DHT22;12011;47.422;15.018;2023-10-08T11:44:32;18.80;65.60
23669;DHT22;12011;47.422;15.018;2023-10-08T11:47:15;18.80;66.80
23669;DHT22;12011;47.422;15.018;2023-10-08T11:49:56;18.60;68.00
23669;DHT22;12011;47.422;15.018;2023-10-08T11:52:38;18.70;63.00
23669;DHT22;12011;47.422;15.018;2023-10-08T11:55:25;18.70;59.10
23669;DHT22;12011;47.422;15.018;2023-10-08T11:58:04;19.10;55.80
23669;DHT22;12011;47.422;15.018;2023-10-08T12:00:46;19.10;56.00
23669;DHT22;12011;47.422;15.018;2023-10-08T12:03:30;19.20;55.30
23669;DHT22;12011;47.422;15.018;2023-10-08T12:06:05;19.30;54.60
23669;DHT22;12011;47.422;15.018;2023-10-08T12:08:53;19.30;54.10
23669;DHT22;12011;47.422;15.018;2023-10-08T12:11:28;19.30;52.90
23669;DHT22;12011;47.422;15.018;2023-10-08T12:14:01;19.20;56.40
23669;DHT22;12011;47.422;15.018;2023-10-08T12:16:38;19.10;59.30
23669;DHT22;12011;47.422;15.018;2023-10-08T12:19:18;19.10;60.40
23669;DHT22;12011;47.422;15.018;2023-10-08T12:21:56;19.00;62.30
23669;DHT22;12011;47.422;15.018;2023-10-08T12:24:30;19.00;60.70
23669;DHT22;12011;47.422;15.018;2023-10-08T12:27:04;18.90;60.70
23669;DHT22;12011;47.422;15.018;2023-10-08T12:29:39;18.90;61.30
23669;DHT22;12011;47.422;15.018;2023-10-08T12:32:15;18.90;60.60
23669;DHT22;12011;47.422;15.018;2023-10-08T12:34:55;18.90;60.70
23669;DHT22;12011;47.422;15.018;2023-10-08T12:37:28;18.90;62.00
23669;DHT22;12011;47.422;15.018;2023-10-08T12:40:00;19.00;59.60
23669;DHT22;12011;47.422;15.018;2023-10-08T12:42:40;18.90;68.60
23669;DHT22;12011;47.422;15.018;2023-10-08T12:45:11;18.80;64.60
23669;DHT22;12011;47.422;15.018;2023-10-08T12:47:48;18.80;66.10
23669;DHT22;12011;47.422;15.018;2023-10-08T12:50:23;18.70;74.60
23669;DHT22;12011;47.422;15.018;2023-10-08T12:52:57;18.70;66.60
23669;DHT22;12011;47.422;15.018;2023-10-08T12:55:31;18.70;69.70
23669;DHT22;12011;47.422;15.018;2023-10-08T12:58:07;18.70;67.30
23669;DHT22;12011;47.422;15.018;2023-10-08T13:00:42;18.80;79.00
23669;DHT22;12011;47.422;15.018;2023-10-08T13:03:16;18.70;71.20
23669;DHT22;12011;47.422;15.018;2023-10-08T13:05:52;18.90;64.90
23669;DHT22;12011;47.422;15.018;2023-10-08T13:08:30;18.90;65.10
23669;DHT22;12011;47.422;15.018;2023-10-08T13:11:01;19.00;61.20
23669;DHT22;12011;47.422;15.018;2023-10-08T13:13:34;19.00;74.10
23669;DHT22;12011;47.422;15.018;2023-10-08T13:16:08;18.80;72.20
23669;DHT22;12011;47.422;15.018;2023-10-08T13:18:38;18.90;71.00
23669;DHT22;12011;47.422;15.018;2023-10-08T13:21:15;18.90;76.70
23669;DHT22;12011;47.422;15.018;2023-10-08T13:23:46;19.10;87.70
23669;DHT22;12011;47.422;15.018;2023-10-08T13:26:16;19.00;76.70
23669;DHT22;12011;47.422;15.018;2023-10-08T13:28:51;19.20;80.00
23669;DHT22;12011;47.422;15.018;2023-10-08T13:31:26;19.30;79.30
23669;DHT22;12011;47.422;15.018;2023-10-08T13:33:58;19.60;54.10
23669;DHT22;12011;47.422;15.018;2023-10-08T13:36:34;19.60;66.30
23669;DHT22;12011;47.422;15.018;2023-10-08T13:39:09;19.60;63.70
23669;DHT22;12011;47.422;15.018;2023-10-08T13:41:45;19.50;68.00
23669;DHT22;12011;47.422;15.018;2023-10-08T13:44:18;19.70;58.60
23669;DHT22;12011;47.422;15.018;2023-10-08T13:46:55;19.60;58.00
23669;DHT22;12011;47.422;15.018;2023-10-08T13:49:26;19.60;57.30
23669;DHT22;12011;47.422;15.018;2023-10-08T13:52:04;19.80;54.00
23669;DHT22;12011;47.422;15.018;2023-10-08T13:54:37;20.00;50.20
23669;DHT22;12011;47.422;15.018;2023-10-08T13:57:14;20.20;49.90
23669;DHT22;12011;47.422;15.018;2023-10-08T13:59:48;20.20;51.40
23669;DHT22;12011;47.422;15.018;2023-10-08T14:02:19;20.20;51.20
23669;DHT22;12011;47.422;15.018;2023-10-08T14:04:54;20.20;50.10
23669;DHT22;12011;47.422;15.018;2023-10-08T14:07:27;20.30;50.80
23669;DHT22;12011;47.422;15.018;2023-10-08T14:09:58;20.30;50.60
23669;DHT22;12011;47.422;15.018;2023-10-08T14:12:35;20.30;49.10
23669;DHT22;12011;47.422;15.018;2023-10-08T14:15:08;20.20;51.20
23669;DHT22;12011;47.422;15.018;2023-10-08T14:17:41;20.20;51.40
23669;DHT22;12011;47.422;15.018;2023-10-08T14:20:15;20.10;49.40
23669;DHT22;12011;47.422;15.018;2023-10-08T14:22:51;20.10;51.40
23669;DHT22;12011;47.422;15.018;2023-10-08T14:25:27;20.20;49.10
23669;DHT22;12011;47.422;15.018;2023-10-08T14:27:59;20.20;49.70
23669;DHT22;12011;47.422;15.018;2023-10-08T14:30:35;19.90;51.90
23669;DHT22;12011;47.422;15.018;2023-10-08T14:33:07;19.80;52.50
23669;DHT22;12011;47.422;15.018;2023-10-08T14:35:50;19.80;51.40
23669;DHT22;12011;47.422;15.018;2023-10-08T14:38:35;19.50;53.70
23669;DHT22;12011;47.422;15.018;2023-10-08T14:41:17;19.50;53.00
23669;DHT22;12011;47.422;15.018;2023-10-08T14:43:59;19.30;54.40
23669;DHT22;12011;47.422;15.018;2023-10-08T14:46:30;19.20;55.70
23669;DHT22;12011;47.422;15.018;2023-10-08T14:49:04;19.00;54.50
23669;DHT22;12011;47.422;15.018;2023-10-08T14:51:37;18.80;56.10
23669;DHT22;12011;47.422;15.018;2023-10-08T14:54:10;18.60;57.60
23669;DHT22;12011;47.422;15.018;2023-10-08T14:56:40;18.60;57.70
23669;DHT22;12011;47.422;15.018;2023-10-08T14:59:11;18.70;55.90
23669;DHT22;12011;47.422;15.018;2023-10-08T15:01:41;18.80;58.20
23669;DHT22;12011;47.422;15.018;2023-10-08T15:04:13;18.40;58.80
23669;DHT22;12011;47.422;15.018;2023-10-08T15:06:44;18.40;58.10
23669;DHT22;12011;47.422;15.018;2023-10-08T15:09:17;18.30;59.10
23669;DHT22;12011;47.422;15.018;2023-10-08T15:11:50;18.40;57.50
23669;DHT22;12011;47.422;15.018;2023-10-08T15:14:21;18.40;60.10
23669;DHT22;12011;47.422;15.018;2023-10-08T15:16:52;18.20;58.00
23669;DHT22;12011;47.422;15.018;2023-10-08T15:19:23;18.10;60.70
23669;DHT22;12011;47.422;15.018;2023-10-08T15:21:54;18.00;61.20
23669;DHT22;12011;47.422;15.018;2023-10-08T15:24:27;17.90;60.50
23669;DHT22;12011;47.422;15.018;2023-10-08T15:26:57;18.00;59.80
23669;DHT22;12011;47.422;15.018;2023-10-08T15:29:27;18.00;63.00
23669;DHT22;12011;47.422;15.018;2023-10-08T15:31:57;18.10;59.90
23669;DHT22;12011;47.422;15.018;2023-10-08T15:34:27;18.00;62.20
23669;DHT22;12011;47.422;15.018;2023-10-08T15:36:57;18.00;59.80
23669;DHT22;12011;47.422;15.018;2023-10-08T15:39:29;18.00;60.30
23669;DHT22;12011;47.422;15.018;2023-10-08T15:41:59;18.10;60.20
23669;DHT22;12011;47.422;15.018;2023-10-08T15:44:30;18.00;59.90
23669;DHT22;12011;47.422;15.018;2023-10-08T15:47:00;17.90;59.30
23669;DHT22;12011;47.422;15.018;2023-10-08T15:49:29;17.80;62.00
23669;DHT22;12011;47.422;15.018;2023-10-08T15:51:59;17.80;61.90
23669;DHT22;12011;47.422;15.018;2023-10-08T15:54:32;17.70;63.10
23669;DHT22;12011;47.422;15.018;2023-10-08T15:57:01;17.60;64.70
23669;DHT22;12011;47.422;15.018;2023-10-08T15:59:34;17.60;62.60
23669;DHT22;12011;47.422;15.018;2023-10-08T16:02:03;17.60;64.40
23669;DHT22;12011;47.422;15.018;2023-10-08T16:04:34;17.60;61.90
23669;DHT22;12011;47.422;15.018;2023-10-08T16:07:04;17.60;63.10
23669;DHT22;12011;47.422;15.018;2023-10-08T16:09:36;17.50;67.50
23669;DHT22;12011;47.422;15.018;2023-10-08T16:12:08;17.60;62.40
23669;DHT22;12011;47.422;15.018;2023-10-08T16:14:38;17.80;62.20
23669;DHT22;12011;47.422;15.018;2023-10-08T16:17:11;17.90;61.90
23669;DHT22;12011;47.422;15.018;2023-10-08T16:19:42;17.80;61.40
23669;DHT22;12011;47.422;15.018;2023-10-08T16:22:13;17.80;63.10
23669;DHT22;12011;47.422;15.018;2023-10-08T16:24:45;17.70;62.60
23669;DHT22;12011;47.422;15.018;2023-10-08T16:27:15;17.60;64.40
23669;DHT22;12011;47.422;15.018;2023-10-08T16:29:45;17.50;64.00
23669;DHT22;12011;47.422;15.018;2023-10-08T16:32:15;17.50;65.00